createdAt,value
2022-09-02T00:00:55.799Z,80.47
2022-09-02T00:06:04.786Z,80.91001
2022-09-02T00:11:12.777Z,80.91001
2022-09-02T00:16:20.786Z,81.1
2022-09-02T00:21:28.553Z,81.2
2022-09-02T00:26:36.425Z,81.44
2022-09-02T00:31:43.637Z,81.57001
2022-09-02T00:36:52.466Z,81.89
2022-09-02T00:41:59.934Z,81.7
2022-09-02T00:47:09.119Z,81.66
2022-09-02T00:52:16.940Z,81.35
2022-09-02T00:57:25.891Z,81.76001
2022-09-02T01:02:33.873Z,81.62001
2022-09-02T01:07:41.269Z,81.96
2022-09-02T01:12:49.317Z,82.04
2022-09-02T01:17:56.106Z,81.85
2022-09-02T01:23:03.494Z,81.93
2022-09-02T01:28:11.538Z,82.1
2022-09-02T01:33:19.286Z,82.24
2022-09-02T01:38:26.311Z,82.12001
2022-09-02T01:43:33.986Z,82.21
2022-09-02T01:48:42.075Z,82.85
2022-09-02T01:53:49.827Z,82.99
2022-09-02T01:58:58.697Z,83.09
2022-09-02T02:04:05.388Z,83.26
2022-09-02T02:09:13.254Z,83.46
2022-09-02T02:14:21.956Z,83.56
2022-09-02T02:19:31.307Z,83.61
2022-09-02T02:24:41.111Z,83.73
2022-09-02T02:29:49.109Z,83.92
2022-09-02T02:34:56.892Z,83.78
2022-09-02T02:40:05.585Z,84.01999
2022-09-02T02:45:12.582Z,84.15
2022-09-02T02:50:20.423Z,84.44
2022-09-02T02:55:29.420Z,84.58
2022-09-02T03:00:37.428Z,84.73001
2022-09-02T03:05:44.631Z,84.92
2022-09-02T03:10:52.371Z,85.11001
2022-09-02T03:16:00.530Z,85.25001
2022-09-02T03:21:08.412Z,85.4
2022-09-02T03:26:16.576Z,85.54
2022-09-02T03:31:23.777Z,85.59
2022-09-02T03:36:31.145Z,85.82
2022-09-02T03:41:39.431Z,85.81
2022-09-02T03:46:47.260Z,86.03
2022-09-02T03:51:59.652Z,86.04
2022-09-02T03:57:08.622Z,86.02
2022-09-02T04:02:17.133Z,86.13
2022-09-02T04:07:23.823Z,86.3
2022-09-02T04:12:32.436Z,86.4
2022-09-02T04:17:40.699Z,86.49
2022-09-02T04:22:48.939Z,86.65
2022-09-02T04:27:57.632Z,86.69001
2022-09-02T04:33:04.256Z,86.74
2022-09-02T04:38:11.480Z,86.81
2022-09-02T04:43:19.945Z,87.05001
2022-09-02T04:48:27.143Z,87.14
2022-09-02T04:53:38.973Z,87.65
2022-09-02T04:58:48.017Z,88.12
2022-09-02T05:03:56.954Z,89.5
2022-09-02T05:10:58.052Z,86.38
2022-09-02T05:16:03.459Z,83.62
2022-09-02T05:21:12.075Z,81.91001
2022-09-02T05:26:20.830Z,79.98001
2022-09-02T05:31:28.259Z,79.94
2022-09-02T05:36:36.553Z,80.33999
2022-09-02T05:41:43.989Z,79.98001
2022-09-02T05:46:52.624Z,80.26999
2022-09-02T05:51:59.704Z,80.51001
2022-09-02T05:57:07.808Z,80.16001
2022-09-02T06:02:15.949Z,78.99
2022-09-02T06:07:23.131Z,76.19
2022-09-02T06:12:31.630Z,76.24
2022-09-02T06:17:38.862Z,74.99
2022-09-02T06:22:47.246Z,73.92
2022-09-02T06:27:55.938Z,73.15
2022-09-02T06:34:36.727Z,73.76
2022-09-02T06:39:42.342Z,73.42
2022-09-02T06:44:50.186Z,73.07
2022-09-02T06:49:58.660Z,71.9
2022-09-02T06:55:07.094Z,71.14
2022-09-02T07:00:14.931Z,69.73001
2022-09-02T07:05:23.000Z,70.06
2022-09-02T07:10:30.851Z,69.82
2022-09-02T07:15:39.048Z,64.55
2022-09-02T07:20:47.495Z,59.97
2022-09-02T07:25:55.164Z,55.19
2022-09-02T07:31:02.786Z,51.67
2022-09-02T07:36:18.216Z,51.06
2022-09-02T07:41:27.675Z,48.21
2022-09-02T07:46:34.542Z,48.08
2022-09-02T07:51:42.342Z,46.4
2022-09-02T07:56:49.078Z,45.74
2022-09-02T08:01:55.514Z,43.43
2022-09-02T08:07:02.701Z,42.64
2022-09-02T08:12:10.824Z,40.86
2022-09-02T08:17:20.038Z,41.39
2022-09-02T08:22:27.556Z,39.69
2022-09-02T08:27:35.449Z,39.05
2022-09-02T08:32:43.979Z,38.61
2022-09-02T08:37:51.039Z,37.64
2022-09-02T08:42:59.387Z,37.51
2022-09-02T08:48:07.292Z,36.18
2022-09-02T08:53:14.678Z,35.98
2022-09-02T08:58:22.341Z,35.86
2022-09-02T09:03:30.444Z,36.59
2022-09-02T09:08:37.891Z,35.85
2022-09-02T09:13:45.149Z,36.21
2022-09-02T09:18:53.063Z,35.57
2022-09-02T09:24:00.261Z,34.67
2022-09-02T09:29:08.548Z,34.76
2022-09-02T09:34:15.661Z,34.73
2022-09-02T09:39:23.447Z,35.58
2022-09-02T09:44:31.038Z,34.99
2022-09-02T09:49:38.175Z,34.43
2022-09-02T09:54:45.375Z,34.82
2022-09-02T09:59:53.368Z,34.34
2022-09-02T10:05:01.054Z,33.46
2022-09-02T10:10:08.899Z,34.11
2022-09-02T10:15:16.713Z,32.66
2022-09-02T10:20:24.809Z,31.02
2022-09-02T10:25:31.740Z,29.94
2022-09-02T10:30:38.983Z,30.99
2022-09-02T10:35:46.198Z,29.93
2022-09-02T10:40:53.979Z,30.82
2022-09-02T10:46:02.071Z,30.08
2022-09-02T10:51:09.734Z,29.01
2022-09-02T10:56:16.860Z,29.27
2022-09-02T11:01:24.699Z,28.28
2022-09-02T11:06:31.439Z,29.22
2022-09-02T11:11:39.074Z,29.3
2022-09-02T11:16:47.446Z,28.44
2022-09-02T11:21:54.184Z,30.29
2022-09-02T11:27:00.728Z,29.6
2022-09-02T11:32:09.027Z,29.56
2022-09-02T11:37:17.560Z,30.08
2022-09-02T11:42:23.579Z,29.73
2022-09-02T11:47:31.484Z,30.14
2022-09-02T11:52:39.757Z,30.42
2022-09-02T11:57:46.464Z,30.46
2022-09-02T12:02:54.409Z,30.26
2022-09-02T12:08:00.855Z,32.36
2022-09-02T12:13:09.560Z,32.92
2022-09-02T12:18:16.610Z,34.71
2022-09-02T12:23:24.384Z,36.28
2022-09-02T12:28:31.783Z,38.81
2022-09-02T12:33:38.798Z,41.01
2022-09-02T12:38:47.373Z,40.9
2022-09-02T12:43:55.496Z,41.82
2022-09-02T12:49:03.859Z,42.55
2022-09-02T12:54:11.615Z,42.27
2022-09-02T12:59:19.418Z,43.18
2022-09-02T13:04:29.517Z,43.22
2022-09-02T13:09:36.860Z,41.63
2022-09-02T13:14:44.900Z,41.18
2022-09-02T13:19:51.983Z,40.72
2022-09-02T13:25:00.066Z,41.04
2022-09-02T13:30:07.760Z,41.04
2022-09-02T13:35:14.768Z,41.36
2022-09-02T13:40:21.588Z,42.01
2022-09-02T13:45:28.897Z,43.09
2022-09-02T13:50:37.531Z,43.99
2022-09-02T13:55:44.895Z,44.49
2022-09-02T14:00:53.367Z,43.16
2022-09-02T14:06:01.303Z,44.73
2022-09-02T14:11:08.335Z,46.36
2022-09-02T14:16:16.769Z,46.39
2022-09-02T14:21:25.847Z,45.99
2022-09-02T14:27:13.552Z,45.03
2022-09-02T14:32:22.124Z,45.56
2022-09-02T14:37:30.351Z,45.68
2022-09-02T14:42:38.119Z,43.8
2022-09-02T14:47:46.254Z,44.65
2022-09-02T14:52:54.070Z,43.52
2022-09-02T14:58:01.206Z,42.92
2022-09-02T15:03:07.761Z,43.22
2022-09-02T15:08:16.157Z,43.83
2022-09-02T15:13:24.027Z,41.73
2022-09-02T15:18:31.254Z,40.22
2022-09-02T15:23:39.062Z,40.32
2022-09-02T15:28:47.006Z,42.54
2022-09-02T15:33:54.875Z,41.91
2022-09-02T15:39:02.881Z,41.2
2022-09-02T15:44:11.093Z,42.82
2022-09-02T15:49:18.810Z,45.24
2022-09-02T15:54:27.064Z,46.0
2022-09-02T15:59:35.731Z,47.15
2022-09-02T16:04:44.122Z,48.53
2022-09-02T16:09:52.395Z,49.0
2022-09-02T16:15:06.655Z,48.36
2022-09-02T16:20:14.204Z,46.36
2022-09-02T16:25:21.540Z,48.26
2022-09-02T16:30:29.439Z,50.12
2022-09-02T16:35:36.732Z,50.52
2022-09-02T16:40:43.780Z,51.44
2022-09-02T16:45:51.965Z,51.57
2022-09-02T16:51:00.075Z,52.24
2022-09-02T16:56:08.329Z,54.78
2022-09-02T17:01:16.062Z,53.51
2022-09-02T17:06:23.540Z,56.46
2022-09-02T17:11:31.707Z,57.62
2022-09-02T17:16:39.322Z,57.08
2022-09-02T17:21:47.354Z,58.52
2022-09-02T17:32:09.867Z,59.42
2022-09-02T17:37:17.063Z,59.34
2022-09-02T17:42:24.863Z,59.72
2022-09-02T17:47:33.161Z,59.88
2022-09-02T17:52:40.581Z,60.28
2022-09-02T17:57:48.951Z,61.15
2022-09-02T18:02:56.321Z,62.4
2022-09-02T18:08:04.527Z,63.98
2022-09-02T18:13:12.764Z,63.99
2022-09-02T18:18:19.799Z,64.2
2022-09-02T18:23:26.951Z,65.46
2022-09-02T18:28:33.536Z,65.52
2022-09-02T18:33:41.504Z,65.64
2022-09-02T18:38:48.581Z,65.78
2022-09-02T18:43:58.500Z,64.92
2022-09-02T18:49:13.121Z,65.01
2022-09-02T18:54:20.730Z,65.37
2022-09-02T18:59:28.102Z,67.02
2022-09-02T19:04:35.483Z,66.68
2022-09-02T19:09:42.671Z,66.61
2022-09-02T19:14:50.604Z,66.25
2022-09-02T19:19:57.710Z,66.44001
2022-09-02T19:25:05.870Z,66.81
2022-09-02T19:30:14.414Z,67.1
2022-09-02T19:35:22.669Z,67.25
2022-09-02T19:40:30.854Z,66.99
2022-09-02T19:45:39.340Z,68.03
2022-09-02T19:50:46.666Z,68.3
2022-09-02T19:55:53.865Z,69.1
2022-09-02T20:01:00.561Z,69.62
2022-09-02T20:06:09.290Z,70.13
2022-09-02T20:11:16.470Z,70.58
2022-09-02T20:16:23.346Z,70.98001
2022-09-02T20:21:31.245Z,71.68
2022-09-02T20:26:38.391Z,71.75
2022-09-02T20:31:46.052Z,72.75
2022-09-02T20:36:53.410Z,73.29
2022-09-02T20:42:01.158Z,72.9
2022-09-02T20:47:08.421Z,72.47
2022-09-02T20:52:16.908Z,71.76
2022-09-02T20:57:24.166Z,71.6
2022-09-02T21:02:31.294Z,71.97
2022-09-02T21:07:38.497Z,72.12
2022-09-02T21:12:45.059Z,72.23001
2022-09-02T21:17:53.553Z,72.13
2022-09-02T21:23:00.749Z,72.07
2022-09-02T21:28:07.947Z,71.92
2022-09-02T21:33:15.557Z,72.16001
2022-09-02T21:38:22.344Z,72.35
2022-09-02T21:43:31.431Z,72.67
2022-09-02T21:48:38.841Z,72.79
2022-09-02T21:53:47.529Z,72.52
2022-09-02T21:58:55.370Z,72.62001
2022-09-02T22:04:02.872Z,73.04
2022-09-02T22:09:10.020Z,72.77
2022-09-02T22:14:16.589Z,73.38
2022-09-02T22:19:24.419Z,74.01
2022-09-02T22:24:33.133Z,74.47
2022-09-02T22:29:41.352Z,75.08
2022-09-02T22:34:48.710Z,75.75
2022-09-02T22:39:57.146Z,76.17
2022-09-02T22:45:05.344Z,76.34
2022-09-02T22:50:13.782Z,76.84
2022-09-02T22:55:22.146Z,76.71
2022-09-02T23:00:29.110Z,76.78
2022-09-02T23:05:37.018Z,77.24
2022-09-02T23:10:44.305Z,77.55001
2022-09-02T23:15:51.339Z,77.56
2022-09-02T23:20:59.145Z,77.61
2022-09-02T23:26:06.341Z,77.86
2022-09-02T23:31:15.320Z,78.03
2022-09-02T23:36:23.676Z,78.36
2022-09-02T23:41:31.865Z,78.36
2022-09-02T23:46:39.035Z,78.81
2022-09-02T23:51:46.785Z,79.48
2022-09-02T23:57:16.445Z,79.78
